createdAt,value
2023-05-21T00:05:06.030Z,57
2023-05-21T00:10:24.557Z,56.8
2023-05-21T00:15:42.618Z,56.5
2023-05-21T00:21:00.773Z,57.5
2023-05-21T00:26:19.360Z,57.6
2023-05-21T00:31:37.595Z,56.5
2023-05-21T00:36:55.862Z,57.2
2023-05-21T00:42:14.274Z,57.6
2023-05-21T00:47:32.632Z,57.1
2023-05-21T00:52:51.025Z,57.5
2023-05-21T00:58:09.545Z,58.1
2023-05-21T01:03:28.027Z,58
2023-05-21T01:08:46.275Z,58.1
2023-05-21T01:14:04.510Z,57.8
2023-05-21T01:19:23.168Z,57.2
2023-05-21T01:24:41.502Z,57.8
2023-05-21T01:29:59.873Z,58.2
2023-05-21T01:35:18.291Z,57.6
2023-05-21T01:40:36.690Z,57.9
2023-05-21T01:45:55.340Z,57.1
2023-05-21T01:51:13.754Z,57.6
2023-05-21T01:56:32.322Z,57.1
2023-05-21T02:01:50.724Z,57.7
2023-05-21T02:07:08.949Z,57.4
2023-05-21T02:12:27.335Z,57.7
2023-05-21T02:17:46.149Z,57.7
2023-05-21T02:23:04.386Z,56.8
2023-05-21T02:28:22.734Z,57.7
2023-05-21T02:33:41.274Z,57.9
2023-05-21T02:38:59.620Z,57.1
2023-05-21T02:44:18.195Z,57.8
2023-05-21T02:49:36.559Z,57.8
2023-05-21T02:54:54.895Z,57.7
2023-05-21T03:00:13.434Z,57.2
2023-05-21T03:05:31.827Z,57.2
2023-05-21T03:10:49.805Z,57.7
2023-05-21T03:16:07.957Z,58.2
2023-05-21T03:21:26.371Z,58.3
2023-05-21T03:26:44.530Z,58.4
2023-05-21T03:32:02.967Z,57.7
2023-05-21T03:37:21.330Z,58.2
2023-05-21T03:42:39.465Z,58
2023-05-21T03:47:57.711Z,58
2023-05-21T03:53:15.777Z,57.3
2023-05-21T03:58:18.306Z,57.9
2023-05-21T04:03:41.460Z,57.6
2023-05-21T04:08:59.984Z,58.1
2023-05-21T04:14:18.337Z,58.5
2023-05-21T04:19:36.599Z,57.3
2023-05-21T04:24:55.114Z,57.3
2023-05-21T04:30:13.301Z,58.3
2023-05-21T04:35:31.691Z,57.4
2023-05-21T04:40:49.861Z,58.1
2023-05-21T04:45:52.624Z,58.2
2023-05-21T04:51:11.084Z,57.5
2023-05-21T04:56:29.720Z,58.3
2023-05-21T05:01:48.352Z,57.6
2023-05-21T05:07:06.736Z,57.6
2023-05-21T05:12:24.982Z,57.9
2023-05-21T05:17:43.127Z,58.3
2023-05-21T05:23:01.920Z,57.2
2023-05-21T05:28:20.099Z,57.8
2023-05-21T05:33:38.441Z,57.4
2023-05-21T05:38:57.015Z,58.1
2023-05-21T05:44:15.210Z,57.5
2023-05-21T05:49:33.614Z,58.2
2023-05-21T05:54:52.016Z,58.3
2023-05-21T06:00:10.159Z,58.1
2023-05-21T06:05:28.196Z,58.2
2023-05-21T06:10:46.789Z,57.4
2023-05-21T06:16:05.028Z,57.5
2023-05-21T06:21:23.293Z,57
2023-05-21T06:26:41.637Z,57.9
2023-05-21T06:32:00.321Z,57
2023-05-21T06:37:18.871Z,56.9
2023-05-21T06:42:37.395Z,56.6
2023-05-21T06:47:55.748Z,57.2
2023-05-21T06:53:13.992Z,56.5
2023-05-21T06:58:32.245Z,57.1
2023-05-21T07:03:50.324Z,56.1
2023-05-21T07:09:08.480Z,56.3
2023-05-21T07:14:11.409Z,56.4
2023-05-21T07:19:29.713Z,57.1
2023-05-21T07:24:48.119Z,57.2
2023-05-21T07:29:50.886Z,57.2
2023-05-21T07:35:09.245Z,52.5
2023-05-21T07:40:27.549Z,52.4
2023-05-21T07:45:45.882Z,52.9
2023-05-21T07:51:04.404Z,53.9
2023-05-21T07:56:22.583Z,53.6
2023-05-21T08:01:40.954Z,53.8
2023-05-21T08:06:59.639Z,54.6
2023-05-21T08:12:18.006Z,54.9
2023-05-21T08:17:36.386Z,55.2
2023-05-21T08:22:54.686Z,54.6
2023-05-21T08:28:12.874Z,55.3
2023-05-21T08:33:31.290Z,54.5
2023-05-21T08:38:49.588Z,54.7
2023-05-21T08:44:07.776Z,54.9
2023-05-21T08:49:28.182Z,54.8
2023-05-21T08:54:46.546Z,54.5
2023-05-21T09:00:04.847Z,55.5
2023-05-21T09:05:23.374Z,54.4
2023-05-21T09:10:41.945Z,54.9
2023-05-21T09:16:00.366Z,54.9
2023-05-21T09:21:18.737Z,54.1
2023-05-21T09:26:36.953Z,53.8
2023-05-21T09:31:55.469Z,54.6
2023-05-21T09:37:28.124Z,54.4
2023-05-21T09:42:46.589Z,54.6
2023-05-21T09:48:05.237Z,53.5
2023-05-21T09:53:23.821Z,54.1
2023-05-21T09:58:42.097Z,53.7
2023-05-21T10:04:00.686Z,53.3
2023-05-21T10:09:19.316Z,53.5
2023-05-21T10:14:37.699Z,53.3
2023-05-21T10:19:58.669Z,54.1
2023-05-21T10:25:17.263Z,52.9
2023-05-21T10:30:36.161Z,53.6
2023-05-21T10:35:54.603Z,53.1
2023-05-21T10:41:16.391Z,53.5
2023-05-21T10:46:34.999Z,47.3
2023-05-21T10:51:53.195Z,48.5
2023-05-21T10:57:11.557Z,48.7
2023-05-21T11:02:30.426Z,49.1
2023-05-21T11:07:49.079Z,46.5
2023-05-21T11:13:07.491Z,42.9
2023-05-21T11:18:25.991Z,41.7
2023-05-21T11:23:44.290Z,43.3
2023-05-21T11:29:02.455Z,43
2023-05-21T11:34:20.586Z,42.5
2023-05-21T11:39:38.909Z,43.3
2023-05-21T11:44:57.251Z,44
2023-05-21T11:50:15.476Z,43
2023-05-21T11:55:33.593Z,43.8
2023-05-21T12:00:51.955Z,44.4
2023-05-21T12:06:10.743Z,44
2023-05-21T12:11:29.119Z,43.2
2023-05-21T12:16:47.727Z,43
2023-05-21T12:22:06.350Z,42.6
2023-05-21T12:27:24.684Z,43.7
2023-05-21T12:32:43.172Z,42.7
2023-05-21T12:37:47.180Z,43.7
2023-05-21T12:43:05.869Z,44.5
2023-05-21T12:48:24.186Z,43.7
2023-05-21T12:53:42.551Z,43.9
2023-05-21T12:59:00.889Z,45.2
2023-05-21T13:04:19.239Z,45.2
2023-05-21T13:09:37.574Z,46.5
2023-05-21T13:14:55.918Z,45.6
2023-05-21T13:20:14.284Z,46.2
2023-05-21T13:25:34.064Z,45.9
2023-05-21T13:30:52.708Z,49.1
2023-05-21T13:36:11.207Z,50.1
2023-05-21T13:41:29.761Z,48.8
2023-05-21T13:46:48.159Z,48.5
2023-05-21T13:52:06.323Z,48
2023-05-21T13:57:24.730Z,47.6
2023-05-21T14:02:43.029Z,46.8
2023-05-21T14:07:45.786Z,47.3
2023-05-21T14:12:48.245Z,46.9
2023-05-21T14:18:06.655Z,47.8
2023-05-21T14:23:24.963Z,47.8
2023-05-21T14:28:43.531Z,49
2023-05-21T14:34:01.633Z,48.8
2023-05-21T14:39:20.140Z,49.7
2023-05-21T14:44:38.723Z,50.1
2023-05-21T14:49:57.081Z,49.9
2023-05-21T14:55:15.194Z,50.3
2023-05-21T15:00:33.654Z,50.9
2023-05-21T15:05:52.148Z,50
2023-05-21T15:11:10.497Z,49.5
2023-05-21T15:16:29.237Z,49.5
2023-05-21T15:21:47.656Z,49.2
2023-05-21T15:27:05.906Z,49.1
2023-05-21T15:32:24.157Z,49.3
2023-05-21T15:37:42.536Z,49
2023-05-21T15:43:00.753Z,47.5
2023-05-21T15:48:18.966Z,47.9
2023-05-21T15:53:37.484Z,49.1
2023-05-21T15:58:56.093Z,48.8
2023-05-21T16:04:14.853Z,47.2
2023-05-21T16:09:33.269Z,44
2023-05-21T16:14:51.477Z,44.7
2023-05-21T16:20:09.885Z,45.7
2023-05-21T16:25:28.429Z,47.1
2023-05-21T16:30:31.448Z,46.6
2023-05-21T16:35:50.016Z,46.7
2023-05-21T16:41:08.356Z,47.4
2023-05-21T16:46:26.872Z,47.4
2023-05-21T16:51:45.395Z,47.5
2023-05-21T16:57:03.534Z,47.9
2023-05-21T17:02:21.986Z,48.3
2023-05-21T17:07:40.319Z,48
2023-05-21T17:13:22.448Z,48.9
2023-05-21T17:18:41.301Z,49.5
2023-05-21T17:23:59.808Z,50.1
2023-05-21T17:29:18.305Z,50.3
2023-05-21T17:34:36.911Z,51.1
2023-05-21T17:39:56.088Z,50.8
2023-05-21T17:45:14.431Z,49.2
2023-05-21T17:50:32.831Z,47.5
2023-05-21T17:55:51.216Z,49.3
2023-05-21T18:01:09.598Z,49.4
2023-05-21T18:06:27.832Z,50
2023-05-21T18:11:46.211Z,49.9
2023-05-21T18:17:04.690Z,50.4
2023-05-21T18:27:53.860Z,52.3
2023-05-21T18:33:12.144Z,52.2
2023-05-21T18:38:30.731Z,53
2023-05-21T18:43:49.137Z,53.5
2023-05-21T18:49:07.443Z,53.3
2023-05-21T18:54:25.756Z,53.8
2023-05-21T18:59:44.576Z,53.5
2023-05-21T19:05:02.962Z,53.9
2023-05-21T19:10:21.568Z,53.2
2023-05-21T19:15:39.928Z,54.3
2023-05-21T19:20:58.377Z,54.3
2023-05-21T19:26:16.545Z,52
2023-05-21T19:31:34.793Z,51.2
2023-05-21T19:36:54.743Z,50.2
2023-05-21T19:42:13.012Z,52.1
2023-05-21T19:47:31.474Z,51.9
2023-05-21T19:52:50.075Z,51.8
2023-05-21T19:58:08.354Z,52.2
2023-05-21T20:03:27.727Z,52.7
2023-05-21T20:08:46.412Z,52.7
2023-05-21T20:14:04.881Z,53.5
2023-05-21T20:19:23.412Z,53.6
2023-05-21T20:24:41.351Z,53.1
2023-05-21T20:30:00.567Z,54.3
2023-05-21T20:35:18.946Z,54.5
2023-05-21T20:40:38.097Z,54.1
2023-05-21T20:45:56.296Z,53.8
2023-05-21T20:51:14.679Z,54.7
2023-05-21T20:56:43.594Z,54.2
2023-05-21T21:02:02.598Z,54.3
2023-05-21T21:07:21.837Z,54
2023-05-21T21:12:40.829Z,54.5
2023-05-21T21:17:59.495Z,55.6
2023-05-21T21:23:17.850Z,55
2023-05-21T21:28:36.555Z,55.3
2023-05-21T21:33:55.059Z,54.3
2023-05-21T21:39:13.781Z,54.3
2023-05-21T21:44:31.917Z,54.5
2023-05-21T21:49:50.479Z,54.7
2023-05-21T21:55:08.870Z,55.3
2023-05-21T22:00:27.538Z,55.2
2023-05-21T22:05:45.846Z,55
2023-05-21T22:11:04.138Z,55.1
2023-05-21T22:16:22.441Z,54.8
2023-05-21T22:21:40.382Z,55.4
2023-05-21T22:26:58.933Z,55.5
2023-05-21T22:32:17.057Z,55.4
2023-05-21T22:37:35.183Z,54.7
2023-05-21T22:42:53.182Z,55
2023-05-21T22:48:11.309Z,54.8
2023-05-21T22:53:29.678Z,54.9
2023-05-21T22:58:48.345Z,55.1
2023-05-21T23:04:06.657Z,55.4
2023-05-21T23:09:24.984Z,54.9
2023-05-21T23:14:43.358Z,56
2023-05-21T23:20:01.511Z,55.9
2023-05-21T23:25:19.651Z,55.1
2023-05-21T23:30:38.784Z,56.3
2023-05-21T23:35:56.979Z,55.7
2023-05-21T23:41:15.365Z,56.1
2023-05-21T23:46:33.755Z,55.3
2023-05-21T23:51:51.688Z,55.8
2023-05-21T23:57:09.800Z,56.2
